Terminal Aerodrome Forecast
Issued by NWS Milwaukee/Sullivan, WI

Home | Current Version | Previous Version | Text Only | Print | Product List | Glossary On
Versions: 1 2 3 4 5 6 7 8 9 10 11 12 13 14 15 16 17 18 19 20 21 22 23
000
FTUS43 KMKX 211249 AAA
TAFMSN
TAF AMD
KMSN 211249Z 2113/2212 29005KT 2SM BR SCT008 BKN250
      TEMPO 2113/2115 6SM BR
     FM211500 30005KT P6SM SKC
     FM220000 20004KT P6SM SKC=

USA.gov is the U.S. government's official web portal to all federal, state and local government web resources and services.